sensor_id;sensor_type;location;lat;lon;timestamp;P1;durP1;ratioP1;P2;durP2;ratioP2
55483;SDS011;41345;51.704;5.146;2022-07-06T00:01:53;7.95;;;2.83;;
55483;SDS011;41345;51.704;5.146;2022-07-06T00:06:53;7.93;;;3.30;;
55483;SDS011;41345;51.704;5.146;2022-07-06T00:11:54;7.65;;;3.35;;
55483;SDS011;41345;51.704;5.146;2022-07-06T00:16:54;8.82;;;3.17;;
55483;SDS011;41345;51.704;5.146;2022-07-06T00:21:55;5.32;;;3.17;;
55483;SDS011;41345;51.704;5.146;2022-07-06T00:26:55;6.35;;;2.80;;
55483;SDS011;41345;51.704;5.146;2022-07-06T00:31:56;9.95;;;3.25;;
55483;SDS011;41345;51.704;5.146;2022-07-06T00:36:57;4.47;;;2.25;;
55483;SDS011;41345;51.704;5.146;2022-07-06T00:41:58;7.03;;;2.60;;
55483;SDS011;41345;51.704;5.146;2022-07-06T00:46:59;6.35;;;2.58;;
55483;SDS011;41345;51.704;5.146;2022-07-06T00:52:00;6.80;;;2.45;;
55483;SDS011;41345;51.704;5.146;2022-07-06T00:57:00;4.45;;;2.13;;
55483;SDS011;41345;51.704;5.146;2022-07-06T01:02:01;5.22;;;2.30;;
55483;SDS011;41345;51.704;5.146;2022-07-06T01:07:02;5.18;;;1.92;;
55483;SDS011;41345;51.704;5.146;2022-07-06T01:12:03;5.05;;;2.00;;
55483;SDS011;41345;51.704;5.146;2022-07-06T01:17:03;5.03;;;2.08;;
55483;SDS011;41345;51.704;5.146;2022-07-06T01:22:04;4.40;;;2.20;;
55483;SDS011;41345;51.704;5.146;2022-07-06T01:27:05;4.35;;;1.92;;
55483;SDS011;41345;51.704;5.146;2022-07-06T01:32:06;4.47;;;2.00;;
55483;SDS011;41345;51.704;5.146;2022-07-06T01:37:07;6.20;;;2.25;;
55483;SDS011;41345;51.704;5.146;2022-07-06T01:42:07;6.07;;;2.85;;
55483;SDS011;41345;51.704;5.146;2022-07-06T01:47:08;6.03;;;2.70;;
55483;SDS011;41345;51.704;5.146;2022-07-06T01:52:08;4.95;;;2.60;;
55483;SDS011;41345;51.704;5.146;2022-07-06T01:57:09;3.83;;;2.03;;
55483;SDS011;41345;51.704;5.146;2022-07-06T02:02:09;6.35;;;2.25;;
55483;SDS011;41345;51.704;5.146;2022-07-06T02:07:11;6.90;;;2.53;;
55483;SDS011;41345;51.704;5.146;2022-07-06T02:12:11;5.65;;;2.38;;
55483;SDS011;41345;51.704;5.146;2022-07-06T02:17:12;6.15;;;3.38;;
55483;SDS011;41345;51.704;5.146;2022-07-06T02:22:12;12.63;;;4.93;;
55483;SDS011;41345;51.704;5.146;2022-07-06T02:27:13;8.27;;;4.50;;
55483;SDS011;41345;51.704;5.146;2022-07-06T02:32:13;10.00;;;4.63;;
55483;SDS011;41345;51.704;5.146;2022-07-06T02:37:14;9.98;;;5.15;;
55483;SDS011;41345;51.704;5.146;2022-07-06T02:42:14;8.70;;;4.25;;
55483;SDS011;41345;51.704;5.146;2022-07-06T02:47:15;10.43;;;4.18;;
55483;SDS011;41345;51.704;5.146;2022-07-06T02:52:16;8.23;;;4.35;;
55483;SDS011;41345;51.704;5.146;2022-07-06T02:57:16;10.10;;;4.40;;
55483;SDS011;41345;51.704;5.146;2022-07-06T03:02:17;10.32;;;4.28;;
55483;SDS011;41345;51.704;5.146;2022-07-06T03:07:18;8.73;;;4.25;;
55483;SDS011;41345;51.704;5.146;2022-07-06T03:12:18;8.85;;;5.10;;
55483;SDS011;41345;51.704;5.146;2022-07-06T03:17:19;13.25;;;5.10;;
55483;SDS011;41345;51.704;5.146;2022-07-06T03:22:21;6.10;;;3.22;;
55483;SDS011;41345;51.704;5.146;2022-07-06T03:27:21;5.60;;;3.17;;
55483;SDS011;41345;51.704;5.146;2022-07-06T03:32:22;7.50;;;3.88;;
55483;SDS011;41345;51.704;5.146;2022-07-06T03:37:22;8.52;;;3.78;;
55483;SDS011;41345;51.704;5.146;2022-07-06T03:42:23;6.78;;;3.30;;
55483;SDS011;41345;51.704;5.146;2022-07-06T03:47:23;5.85;;;3.30;;
55483;SDS011;41345;51.704;5.146;2022-07-06T03:52:24;7.97;;;4.10;;
55483;SDS011;41345;51.704;5.146;2022-07-06T03:57:24;9.70;;;4.70;;
55483;SDS011;41345;51.704;5.146;2022-07-06T04:02:25;7.63;;;3.92;;
55483;SDS011;41345;51.704;5.146;2022-07-06T04:07:26;7.25;;;3.88;;
55483;SDS011;41345;51.704;5.146;2022-07-06T04:12:27;5.72;;;2.80;;
55483;SDS011;41345;51.704;5.146;2022-07-06T04:17:27;8.52;;;4.45;;
55483;SDS011;41345;51.704;5.146;2022-07-06T04:22:46;6.50;;;3.33;;
55483;SDS011;41345;51.704;5.146;2022-07-06T04:27:47;9.57;;;4.85;;
55483;SDS011;41345;51.704;5.146;2022-07-06T04:32:48;12.73;;;5.10;;
55483;SDS011;41345;51.704;5.146;2022-07-06T04:37:48;10.10;;;4.85;;
55483;SDS011;41345;51.704;5.146;2022-07-06T04:42:49;8.65;;;4.90;;
55483;SDS011;41345;51.704;5.146;2022-07-06T04:47:50;7.90;;;3.85;;
55483;SDS011;41345;51.704;5.146;2022-07-06T04:52:50;8.23;;;3.50;;
55483;SDS011;41345;51.704;5.146;2022-07-06T04:57:51;6.38;;;3.38;;
55483;SDS011;41345;51.704;5.146;2022-07-06T05:02:52;10.80;;;5.30;;
55483;SDS011;41345;51.704;5.146;2022-07-06T05:07:53;10.13;;;5.13;;
55483;SDS011;41345;51.704;5.146;2022-07-06T05:12:54;8.70;;;5.38;;
55483;SDS011;41345;51.704;5.146;2022-07-06T05:17:55;14.15;;;5.47;;
55483;SDS011;41345;51.704;5.146;2022-07-06T05:22:56;11.70;;;5.10;;
55483;SDS011;41345;51.704;5.146;2022-07-06T05:27:56;9.70;;;5.50;;
55483;SDS011;41345;51.704;5.146;2022-07-06T05:32:57;11.55;;;5.75;;
55483;SDS011;41345;51.704;5.146;2022-07-06T05:37:57;11.90;;;5.32;;
55483;SDS011;41345;51.704;5.146;2022-07-06T05:42:58;10.35;;;5.40;;
55483;SDS011;41345;51.704;5.146;2022-07-06T05:47:58;8.40;;;5.32;;
55483;SDS011;41345;51.704;5.146;2022-07-06T05:53:17;9.10;;;4.47;;
55483;SDS011;41345;51.704;5.146;2022-07-06T05:58:18;9.30;;;5.07;;
55483;SDS011;41345;51.704;5.146;2022-07-06T06:03:18;14.82;;;4.57;;
55483;SDS011;41345;51.704;5.146;2022-07-06T06:08:19;9.18;;;4.30;;
55483;SDS011;41345;51.704;5.146;2022-07-06T06:13:20;10.48;;;4.38;;
55483;SDS011;41345;51.704;5.146;2022-07-06T06:18:21;8.20;;;3.58;;
55483;SDS011;41345;51.704;5.146;2022-07-06T06:23:22;6.50;;;3.10;;
55483;SDS011;41345;51.704;5.146;2022-07-06T06:28:22;6.57;;;3.38;;
55483;SDS011;41345;51.704;5.146;2022-07-06T06:33:22;7.30;;;3.22;;
55483;SDS011;41345;51.704;5.146;2022-07-06T06:38:23;7.55;;;3.25;;
55483;SDS011;41345;51.704;5.146;2022-07-06T06:43:29;7.32;;;3.47;;
55483;SDS011;41345;51.704;5.146;2022-07-06T06:48:30;5.97;;;2.72;;
55483;SDS011;41345;51.704;5.146;2022-07-06T06:53:31;4.18;;;2.33;;
55483;SDS011;41345;51.704;5.146;2022-07-06T06:58:32;4.80;;;1.70;;
55483;SDS011;41345;51.704;5.146;2022-07-06T07:03:32;2.72;;;1.40;;
55483;SDS011;41345;51.704;5.146;2022-07-06T07:08:32;4.95;;;1.30;;
55483;SDS011;41345;51.704;5.146;2022-07-06T07:13:33;3.20;;;1.40;;
55483;SDS011;41345;51.704;5.146;2022-07-06T07:18:33;3.38;;;1.42;;
55483;SDS011;41345;51.704;5.146;2022-07-06T07:23:34;1.63;;;0.73;;
55483;SDS011;41345;51.704;5.146;2022-07-06T07:28:34;2.13;;;0.90;;
55483;SDS011;41345;51.704;5.146;2022-07-06T07:33:35;2.40;;;0.70;;
55483;SDS011;41345;51.704;5.146;2022-07-06T07:38:36;1.85;;;0.80;;
55483;SDS011;41345;51.704;5.146;2022-07-06T07:43:36;4.03;;;0.75;;
55483;SDS011;41345;51.704;5.146;2022-07-06T07:48:36;3.50;;;0.70;;
55483;SDS011;41345;51.704;5.146;2022-07-06T07:53:37;3.75;;;0.90;;
55483;SDS011;41345;51.704;5.146;2022-07-06T07:58:37;6.57;;;1.00;;
55483;SDS011;41345;51.704;5.146;2022-07-06T08:03:38;3.03;;;0.80;;
55483;SDS011;41345;51.704;5.146;2022-07-06T08:08:39;1.83;;;0.70;;
55483;SDS011;41345;51.704;5.146;2022-07-06T08:13:40;2.42;;;0.70;;
55483;SDS011;41345;51.704;5.146;2022-07-06T08:18:40;3.03;;;0.70;;
55483;SDS011;41345;51.704;5.146;2022-07-06T08:23:41;3.97;;;0.90;;
55483;SDS011;41345;51.704;5.146;2022-07-06T08:28:41;2.90;;;0.50;;
55483;SDS011;41345;51.704;5.146;2022-07-06T08:33:42;3.95;;;0.90;;
55483;SDS011;41345;51.704;5.146;2022-07-06T08:38:42;1.83;;;0.77;;
55483;SDS011;41345;51.704;5.146;2022-07-06T08:43:42;4.57;;;0.70;;
55483;SDS011;41345;51.704;5.146;2022-07-06T08:48:43;3.28;;;0.60;;
55483;SDS011;41345;51.704;5.146;2022-07-06T08:53:45;4.18;;;0.70;;
55483;SDS011;41345;51.704;5.146;2022-07-06T08:58:48;2.65;;;0.70;;
55483;SDS011;41345;51.704;5.146;2022-07-06T09:03:50;3.13;;;0.65;;
55483;SDS011;41345;51.704;5.146;2022-07-06T09:08:52;4.10;;;1.02;;
55483;SDS011;41345;51.704;5.146;2022-07-06T09:13:55;5.05;;;0.68;;
55483;SDS011;41345;51.704;5.146;2022-07-06T09:18:57;4.07;;;0.70;;
55483;SDS011;41345;51.704;5.146;2022-07-06T09:23:58;1.75;;;0.60;;
55483;SDS011;41345;51.704;5.146;2022-07-06T09:29:02;2.17;;;0.40;;
55483;SDS011;41345;51.704;5.146;2022-07-06T09:34:05;3.47;;;0.63;;
55483;SDS011;41345;51.704;5.146;2022-07-06T09:39:21;1.92;;;0.70;;
55483;SDS011;41345;51.704;5.146;2022-07-06T09:44:29;1.65;;;0.50;;
55483;SDS011;41345;51.704;5.146;2022-07-06T09:49:31;3.45;;;0.60;;
55483;SDS011;41345;51.704;5.146;2022-07-06T09:54:32;1.48;;;0.60;;
55483;SDS011;41345;51.704;5.146;2022-07-06T09:59:35;1.17;;;0.40;;
55483;SDS011;41345;51.704;5.146;2022-07-06T10:04:36;9.82;;;0.65;;
55483;SDS011;41345;51.704;5.146;2022-07-06T10:09:36;1.38;;;0.50;;
55483;SDS011;41345;51.704;5.146;2022-07-06T10:14:37;1.75;;;0.50;;
55483;SDS011;41345;51.704;5.146;2022-07-06T10:19:40;0.55;;;0.30;;
55483;SDS011;41345;51.704;5.146;2022-07-06T10:24:41;2.10;;;0.43;;
55483;SDS011;41345;51.704;5.146;2022-07-06T10:29:43;1.85;;;0.40;;
55483;SDS011;41345;51.704;5.146;2022-07-06T10:34:44;2.80;;;0.52;;
55483;SDS011;41345;51.704;5.146;2022-07-06T10:39:44;1.67;;;0.40;;
55483;SDS011;41345;51.704;5.146;2022-07-06T10:45:06;1.40;;;0.40;;
55483;SDS011;41345;51.704;5.146;2022-07-06T10:50:07;1.98;;;0.30;;
55483;SDS011;41345;51.704;5.146;2022-07-06T10:55:07;1.75;;;0.40;;
55483;SDS011;41345;51.704;5.146;2022-07-06T11:00:26;0.85;;;0.40;;
55483;SDS011;41345;51.704;5.146;2022-07-06T11:05:42;3.35;;;0.50;;
55483;SDS011;41345;51.704;5.146;2022-07-06T11:10:46;1.23;;;0.43;;
55483;SDS011;41345;51.704;5.146;2022-07-06T11:15:50;2.55;;;0.55;;
55483;SDS011;41345;51.704;5.146;2022-07-06T11:26:20;4.72;;;0.85;;
55483;SDS011;41345;51.704;5.146;2022-07-06T11:31:22;1.77;;;0.47;;
55483;SDS011;41345;51.704;5.146;2022-07-06T11:36:23;3.33;;;0.70;;
55483;SDS011;41345;51.704;5.146;2022-07-06T11:41:23;2.25;;;0.63;;
55483;SDS011;41345;51.704;5.146;2022-07-06T11:46:25;3.38;;;0.77;;
55483;SDS011;41345;51.704;5.146;2022-07-06T11:51:28;5.63;;;0.80;;
55483;SDS011;41345;51.704;5.146;2022-07-06T11:56:30;3.55;;;0.60;;
55483;SDS011;41345;51.704;5.146;2022-07-06T12:01:31;4.03;;;0.60;;
55483;SDS011;41345;51.704;5.146;2022-07-06T12:06:33;2.30;;;0.93;;
55483;SDS011;41345;51.704;5.146;2022-07-06T12:11:34;1.70;;;0.63;;
55483;SDS011;41345;51.704;5.146;2022-07-06T12:16:36;2.30;;;0.90;;
55483;SDS011;41345;51.704;5.146;2022-07-06T12:21:41;1.75;;;0.68;;
55483;SDS011;41345;51.704;5.146;2022-07-06T12:26:52;4.28;;;0.80;;
55483;SDS011;41345;51.704;5.146;2022-07-06T12:31:54;3.13;;;1.02;;
55483;SDS011;41345;51.704;5.146;2022-07-06T12:36:57;3.80;;;0.90;;
55483;SDS011;41345;51.704;5.146;2022-07-06T12:42:02;9.07;;;1.45;;
55483;SDS011;41345;51.704;5.146;2022-07-06T12:47:08;7.95;;;0.98;;
55483;SDS011;41345;51.704;5.146;2022-07-06T12:52:10;5.40;;;1.00;;
55483;SDS011;41345;51.704;5.146;2022-07-06T12:57:22;2.38;;;1.20;;
55483;SDS011;41345;51.704;5.146;2022-07-06T13:02:34;3.20;;;1.10;;
55483;SDS011;41345;51.704;5.146;2022-07-06T13:07:38;2.33;;;1.10;;
55483;SDS011;41345;51.704;5.146;2022-07-06T13:12:43;4.68;;;1.35;;
55483;SDS011;41345;51.704;5.146;2022-07-06T13:17:44;5.38;;;1.30;;
55483;SDS011;41345;51.704;5.146;2022-07-06T13:22:45;4.40;;;0.90;;
55483;SDS011;41345;51.704;5.146;2022-07-06T13:27:45;7.45;;;1.30;;
55483;SDS011;41345;51.704;5.146;2022-07-06T13:32:46;4.25;;;1.05;;
55483;SDS011;41345;51.704;5.146;2022-07-06T13:37:47;3.60;;;0.80;;
55483;SDS011;41345;51.704;5.146;2022-07-06T13:42:49;3.55;;;1.10;;
55483;SDS011;41345;51.704;5.146;2022-07-06T13:47:49;5.88;;;1.00;;
55483;SDS011;41345;51.704;5.146;2022-07-06T13:52:50;4.57;;;1.00;;
55483;SDS011;41345;51.704;5.146;2022-07-06T13:57:50;5.75;;;1.25;;
55483;SDS011;41345;51.704;5.146;2022-07-06T14:02:51;6.67;;;1.70;;
55483;SDS011;41345;51.704;5.146;2022-07-06T14:07:51;15.25;;;1.90;;
55483;SDS011;41345;51.704;5.146;2022-07-06T14:12:52;5.25;;;1.00;;
55483;SDS011;41345;51.704;5.146;2022-07-06T14:17:53;3.28;;;0.90;;
55483;SDS011;41345;51.704;5.146;2022-07-06T14:22:53;3.83;;;1.17;;
55483;SDS011;41345;51.704;5.146;2022-07-06T14:27:54;3.55;;;1.15;;
55483;SDS011;41345;51.704;5.146;2022-07-06T14:32:55;2.58;;;0.82;;
55483;SDS011;41345;51.704;5.146;2022-07-06T14:37:56;2.28;;;0.75;;
55483;SDS011;41345;51.704;5.146;2022-07-06T14:42:56;4.40;;;1.30;;
55483;SDS011;41345;51.704;5.146;2022-07-06T14:47:57;9.15;;;1.50;;
55483;SDS011;41345;51.704;5.146;2022-07-06T14:52:58;4.68;;;1.10;;
55483;SDS011;41345;51.704;5.146;2022-07-06T14:57:58;4.15;;;1.30;;
55483;SDS011;41345;51.704;5.146;2022-07-06T15:02:59;7.45;;;1.65;;
55483;SDS011;41345;51.704;5.146;2022-07-06T15:07:59;4.43;;;1.33;;
55483;SDS011;41345;51.704;5.146;2022-07-06T15:13:00;16.52;;;1.83;;
55483;SDS011;41345;51.704;5.146;2022-07-06T15:18:01;5.07;;;1.60;;
55483;SDS011;41345;51.704;5.146;2022-07-06T15:23:01;4.30;;;1.40;;
55483;SDS011;41345;51.704;5.146;2022-07-06T15:28:02;7.57;;;2.20;;
55483;SDS011;41345;51.704;5.146;2022-07-06T15:33:03;9.30;;;2.67;;
55483;SDS011;41345;51.704;5.146;2022-07-06T15:38:04;7.53;;;2.25;;
55483;SDS011;41345;51.704;5.146;2022-07-06T15:43:06;3.67;;;2.17;;
55483;SDS011;41345;51.704;5.146;2022-07-06T15:48:07;7.32;;;3.40;;
55483;SDS011;41345;51.704;5.146;2022-07-06T15:53:08;11.07;;;3.22;;
55483;SDS011;41345;51.704;5.146;2022-07-06T15:58:08;7.53;;;3.17;;
55483;SDS011;41345;51.704;5.146;2022-07-06T16:03:09;10.18;;;2.53;;
55483;SDS011;41345;51.704;5.146;2022-07-06T16:08:10;5.07;;;2.10;;
55483;SDS011;41345;51.704;5.146;2022-07-06T16:13:10;8.43;;;2.72;;
55483;SDS011;41345;51.704;5.146;2022-07-06T16:18:12;8.43;;;2.78;;
55483;SDS011;41345;51.704;5.146;2022-07-06T16:23:12;6.22;;;1.63;;
55483;SDS011;41345;51.704;5.146;2022-07-06T16:28:13;11.53;;;1.80;;
55483;SDS011;41345;51.704;5.146;2022-07-06T16:33:14;8.43;;;2.10;;
55483;SDS011;41345;51.704;5.146;2022-07-06T16:38:15;10.75;;;2.28;;
55483;SDS011;41345;51.704;5.146;2022-07-06T16:43:16;7.53;;;2.40;;
55483;SDS011;41345;51.704;5.146;2022-07-06T16:48:19;8.32;;;2.50;;
55483;SDS011;41345;51.704;5.146;2022-07-06T16:53:19;8.20;;;2.55;;
55483;SDS011;41345;51.704;5.146;2022-07-06T16:58:20;8.15;;;2.33;;
55483;SDS011;41345;51.704;5.146;2022-07-06T17:03:21;7.95;;;2.38;;
55483;SDS011;41345;51.704;5.146;2022-07-06T17:08:21;9.70;;;2.50;;
55483;SDS011;41345;51.704;5.146;2022-07-06T17:13:22;7.13;;;2.67;;
55483;SDS011;41345;51.704;5.146;2022-07-06T17:18:23;9.07;;;3.63;;
55483;SDS011;41345;51.704;5.146;2022-07-06T17:23:23;10.82;;;2.50;;
55483;SDS011;41345;51.704;5.146;2022-07-06T17:28:24;8.05;;;2.50;;
55483;SDS011;41345;51.704;5.146;2022-07-06T17:33:25;6.25;;;2.20;;
55483;SDS011;41345;51.704;5.146;2022-07-06T17:38:26;7.90;;;1.90;;
55483;SDS011;41345;51.704;5.146;2022-07-06T17:43:26;5.03;;;1.63;;
55483;SDS011;41345;51.704;5.146;2022-07-06T17:48:27;4.47;;;1.30;;
55483;SDS011;41345;51.704;5.146;2022-07-06T17:53:27;3.58;;;1.10;;
55483;SDS011;41345;51.704;5.146;2022-07-06T18:49:17;4.03;;;1.70;;
55483;SDS011;41345;51.704;5.146;2022-07-06T18:54:17;5.10;;;2.47;;
55483;SDS011;41345;51.704;5.146;2022-07-06T18:59:18;3.05;;;1.90;;
55483;SDS011;41345;51.704;5.146;2022-07-06T19:04:18;6.47;;;1.63;;
